createdAt,value
2022-11-10T00:04:49.525Z,12.17
2022-11-10T00:10:11.101Z,12.17
2022-11-10T00:15:49.742Z,12.18
2022-11-10T00:21:12.303Z,12.20
2022-11-10T00:26:32.738Z,12.21
2022-11-10T00:31:52.938Z,12.22
2022-11-10T00:37:13.338Z,12.20
2022-11-10T00:42:33.739Z,12.18
2022-11-10T00:47:54.183Z,12.17
2022-11-10T00:53:14.481Z,12.17
2022-11-10T00:58:34.630Z,12.16
2022-11-10T01:03:56.159Z,12.15
2022-11-10T01:09:16.393Z,12.13
2022-11-10T01:14:36.899Z,12.11
2022-11-10T01:19:57.328Z,12.09
2022-11-10T01:25:17.516Z,12.07
2022-11-10T01:30:37.880Z,12.05
2022-11-10T01:35:58.998Z,12.04
2022-11-10T01:41:19.361Z,12.02
2022-11-10T01:46:39.707Z,11.99
2022-11-10T01:52:13.684Z,11.96
2022-11-10T01:57:35.323Z,11.92
2022-11-10T02:03:36.231Z,11.90
2022-11-10T02:08:59.542Z,11.87
2022-11-10T02:14:20.320Z,11.84
2022-11-10T02:19:41.939Z,11.79
2022-11-10T02:25:02.784Z,11.73
2022-11-10T02:30:27.545Z,11.68
2022-11-10T02:35:48.748Z,11.61
2022-11-10T02:41:10.257Z,11.54
2022-11-10T02:46:30.680Z,11.50
2022-11-10T02:51:51.034Z,11.46
2022-11-10T02:57:11.550Z,11.44
2022-11-10T03:02:32.442Z,11.45
2022-11-10T03:07:58.033Z,11.46
2022-11-10T03:13:19.227Z,11.45
2022-11-10T03:18:39.938Z,11.43
2022-11-10T03:24:00.469Z,11.39
2022-11-10T03:29:20.811Z,11.38
2022-11-10T03:34:41.303Z,11.36
2022-11-10T03:40:01.788Z,11.35
2022-11-10T03:45:21.815Z,11.33
2022-11-10T03:50:42.326Z,11.32
2022-11-10T03:56:05.318Z,11.30
2022-11-10T04:01:25.633Z,11.26
2022-11-10T04:07:04.609Z,11.23
2022-11-10T04:12:43.944Z,11.20
2022-11-10T04:18:24.607Z,11.15
2022-11-10T04:23:44.982Z,11.13
2022-11-10T04:29:11.214Z,11.11
2022-11-10T04:34:31.860Z,11.08
2022-11-10T04:39:52.493Z,11.07
2022-11-10T04:45:13.162Z,11.04
2022-11-10T04:50:34.522Z,11.02
2022-11-10T04:55:54.616Z,11.01
2022-11-10T05:01:18.094Z,10.99
2022-11-10T05:06:38.734Z,10.97
2022-11-10T05:11:59.030Z,10.95
2022-11-10T05:17:19.725Z,10.93
2022-11-10T05:22:39.819Z,10.88
2022-11-10T05:28:00.265Z,10.87
2022-11-10T05:33:21.056Z,10.87
2022-11-10T05:38:43.876Z,10.89
2022-11-10T05:44:05.085Z,10.90
2022-11-10T05:49:27.279Z,10.91
2022-11-10T05:54:47.608Z,10.90
2022-11-10T06:00:08.539Z,10.88
2022-11-10T06:05:31.616Z,10.82
2022-11-10T06:10:52.452Z,10.78
2022-11-10T06:16:12.945Z,10.74
2022-11-10T06:21:33.617Z,10.71
2022-11-10T06:26:54.172Z,10.70
2022-11-10T06:32:14.629Z,10.69
2022-11-10T06:37:35.245Z,10.67
2022-11-10T06:42:56.179Z,10.69
2022-11-10T06:48:16.616Z,10.76
2022-11-10T06:53:36.886Z,10.84
2022-11-10T06:58:57.116Z,10.90
2022-11-10T07:04:20.398Z,10.90
2022-11-10T07:09:42.364Z,10.91
2022-11-10T07:15:03.222Z,10.91
2022-11-10T07:20:24.084Z,10.93
2022-11-10T07:25:44.568Z,10.98
2022-11-10T07:31:05.359Z,11.00
2022-11-10T07:36:29.074Z,11.04
2022-11-10T07:41:52.440Z,11.11
2022-11-10T07:47:13.587Z,11.18
2022-11-10T07:52:34.869Z,11.23
2022-11-10T07:58:01.561Z,11.26
2022-11-10T08:03:23.073Z,11.32
2022-11-10T08:08:47.340Z,11.40
2022-11-10T08:14:08.205Z,11.44
2022-11-10T08:19:28.446Z,11.49
2022-11-10T08:24:48.575Z,11.54
2022-11-10T08:30:09.362Z,11.59
2022-11-10T08:35:31.907Z,11.67
2022-11-10T08:40:52.385Z,11.68
2022-11-10T08:46:12.749Z,11.80
2022-11-10T08:51:38.700Z,11.92
2022-11-10T08:56:59.345Z,12.07
2022-11-10T09:02:20.022Z,12.20
2022-11-10T09:07:48.569Z,12.32
2022-11-10T09:13:08.752Z,12.45
2022-11-10T09:18:29.900Z,12.54
2022-11-10T09:23:50.496Z,12.61
2022-11-10T09:29:10.797Z,12.59
2022-11-10T09:34:31.925Z,12.49
2022-11-10T09:39:52.707Z,12.39
2022-11-10T09:45:25.012Z,12.46
2022-11-10T09:50:58.573Z,12.52
2022-11-10T09:56:26.187Z,12.55
2022-11-10T10:02:03.334Z,12.60
2022-11-10T10:07:29.347Z,12.66
2022-11-10T10:13:08.448Z,12.71
2022-11-10T10:18:39.141Z,12.71
2022-11-10T10:24:13.995Z,12.67
2022-11-10T10:29:43.781Z,12.69
2022-11-10T10:35:04.396Z,12.74
2022-11-10T10:40:25.518Z,12.76
2022-11-10T10:46:04.546Z,12.75
2022-11-10T10:51:29.952Z,12.74
2022-11-10T10:56:50.881Z,12.73
2022-11-10T11:02:32.339Z,12.73
2022-11-10T11:07:57.821Z,12.79
2022-11-10T11:13:25.264Z,12.82
2022-11-10T11:18:46.061Z,12.78
2022-11-10T11:24:30.808Z,12.79
2022-11-10T11:30:05.749Z,12.80
2022-11-10T11:35:38.102Z,12.83
2022-11-10T11:41:16.326Z,12.94
2022-11-10T11:46:54.443Z,13.01
2022-11-10T11:52:34.801Z,13.05
2022-11-10T11:58:13.928Z,13.17
2022-11-10T12:03:56.163Z,13.25
2022-11-10T12:09:22.752Z,13.22
2022-11-10T12:15:04.908Z,13.22
2022-11-10T12:21:10.213Z,13.34
2022-11-10T12:26:47.756Z,13.35
2022-11-10T12:32:36.164Z,13.30
2022-11-10T12:38:19.807Z,13.35
2022-11-10T12:44:22.509Z,13.32
2022-11-10T12:50:11.217Z,13.31
2022-11-10T12:55:40.676Z,13.27
2022-11-10T13:01:04.957Z,13.23
2022-11-10T13:06:36.747Z,13.16
2022-11-10T13:12:23.468Z,13.15
2022-11-10T13:17:47.223Z,13.15
2022-11-10T13:23:27.150Z,13.15
2022-11-10T13:28:48.445Z,13.12
2022-11-10T13:34:12.853Z,13.11
2022-11-10T13:39:34.214Z,13.09
2022-11-10T13:44:54.736Z,13.09
2022-11-10T13:50:36.652Z,13.17
2022-11-10T13:56:18.635Z,13.24
2022-11-10T14:01:42.249Z,13.29
2022-11-10T14:07:05.983Z,13.27
2022-11-10T14:12:44.565Z,13.21
2022-11-10T14:18:25.464Z,13.15
2022-11-10T14:23:50.534Z,13.08
2022-11-10T14:29:32.898Z,13.04
2022-11-10T14:34:55.644Z,12.98
2022-11-10T14:40:19.677Z,12.93
2022-11-10T14:45:51.095Z,12.88
2022-11-10T14:51:19.165Z,12.82
2022-11-10T14:56:42.804Z,12.78
2022-11-10T15:02:04.061Z,12.72
2022-11-10T15:07:24.566Z,12.67
2022-11-10T15:12:58.340Z,12.61
2022-11-10T15:18:36.782Z,12.56
2022-11-10T15:24:02.256Z,12.50
2022-11-10T15:29:23.966Z,12.46
2022-11-10T15:34:46.019Z,12.41
2022-11-10T15:40:28.023Z,12.38
2022-11-10T15:45:58.336Z,12.34
2022-11-10T15:51:25.836Z,12.31
2022-11-10T15:56:46.899Z,12.27
2022-11-10T16:02:26.307Z,12.25
2022-11-10T16:07:47.279Z,12.21
2022-11-10T16:13:14.311Z,12.16
2022-11-10T16:18:35.178Z,12.11
2022-11-10T16:23:55.905Z,12.05
2022-11-10T16:29:19.895Z,12.00
2022-11-10T16:34:40.656Z,11.95
2022-11-10T16:40:00.940Z,11.88
2022-11-10T16:45:24.248Z,11.84
2022-11-10T16:50:46.160Z,11.80
2022-11-10T16:56:16.370Z,11.76
2022-11-10T17:01:39.013Z,11.71
2022-11-10T17:06:59.573Z,11.67
2022-11-10T17:12:20.031Z,11.64
2022-11-10T17:17:43.064Z,11.61
2022-11-10T17:23:05.422Z,11.57
2022-11-10T17:28:26.024Z,11.55
2022-11-10T17:33:46.584Z,11.52
2022-11-10T17:39:06.975Z,11.50
2022-11-10T17:44:27.474Z,11.47
2022-11-10T17:49:47.791Z,11.45
2022-11-10T17:55:20.578Z,11.41
2022-11-10T18:00:41.422Z,11.38
2022-11-10T18:06:06.403Z,11.35
2022-11-10T18:11:26.633Z,11.32
2022-11-10T18:16:46.957Z,11.30
2022-11-10T18:22:07.712Z,11.27
2022-11-10T18:27:28.395Z,11.24
2022-11-10T18:32:49.102Z,11.21
2022-11-10T18:38:11.800Z,11.18
2022-11-10T18:43:32.114Z,11.15
2022-11-10T18:48:52.540Z,11.14
2022-11-10T18:54:13.813Z,11.11
2022-11-10T18:59:33.970Z,11.09
2022-11-10T19:04:54.239Z,11.09
2022-11-10T19:10:14.564Z,11.06
2022-11-10T19:15:40.384Z,11.04
2022-11-10T19:21:27.598Z,11.01
2022-11-10T19:26:51.934Z,10.99
2022-11-10T19:32:12.617Z,10.98
2022-11-10T19:37:35.236Z,10.96
2022-11-10T19:42:55.668Z,10.93
2022-11-10T19:48:16.737Z,10.90
2022-11-10T19:53:37.169Z,10.89
2022-11-10T19:58:58.645Z,10.89
2022-11-10T20:04:19.103Z,10.89
2022-11-10T20:09:40.192Z,10.91
2022-11-10T20:15:00.464Z,10.91
2022-11-10T20:20:21.033Z,10.93
2022-11-10T20:25:41.896Z,10.92
2022-11-10T20:31:04.351Z,10.91
2022-11-10T20:36:34.398Z,10.90
2022-11-10T20:41:54.939Z,10.89
2022-11-10T20:47:15.334Z,10.89
2022-11-10T20:52:36.014Z,10.88
2022-11-10T20:57:56.433Z,10.85
2022-11-10T21:03:17.147Z,10.84
2022-11-10T21:08:37.951Z,10.83
2022-11-10T21:13:58.290Z,10.82
2022-11-10T21:19:18.454Z,10.80
2022-11-10T21:24:48.149Z,10.80
2022-11-10T21:30:12.968Z,10.80
2022-11-10T21:35:39.296Z,10.78
2022-11-10T21:40:59.648Z,10.76
2022-11-10T21:46:21.029Z,10.74
2022-11-10T21:51:41.665Z,10.74
2022-11-10T21:57:02.073Z,10.74
2022-11-10T22:02:22.588Z,10.74
2022-11-10T22:07:42.952Z,10.75
2022-11-10T22:13:22.567Z,10.75
2022-11-10T22:18:46.833Z,10.76
2022-11-10T22:24:26.172Z,10.76
2022-11-10T22:29:46.452Z,10.74
2022-11-10T22:35:07.006Z,10.70
2022-11-10T22:40:45.553Z,10.69
2022-11-10T22:46:05.754Z,10.68
2022-11-10T22:51:27.975Z,10.64
2022-11-10T22:56:48.974Z,10.61
2022-11-10T23:02:09.583Z,10.63
2022-11-10T23:07:29.949Z,10.60
2022-11-10T23:12:50.728Z,10.60
2022-11-10T23:18:11.119Z,10.59
2022-11-10T23:23:33.433Z,10.58
2022-11-10T23:28:54.403Z,10.56
2022-11-10T23:34:20.820Z,10.55
2022-11-10T23:39:41.283Z,10.54
2022-11-10T23:45:01.773Z,10.55
2022-11-10T23:50:21.914Z,10.53
2022-11-10T23:55:43.403Z,10.54
